createdAt,value
2023-03-01T00:01:06.092Z,-0.20
2023-03-01T00:03:33.488Z,-0.20
2023-03-01T00:06:00.660Z,-0.30
2023-03-01T00:08:28.382Z,-0.30
2023-03-01T00:11:15.432Z,-0.30
2023-03-01T00:13:43.294Z,-0.30
2023-03-01T00:16:19.761Z,-0.40
2023-03-01T00:18:46.631Z,-0.40
2023-03-01T00:21:14.071Z,-0.50
2023-03-01T00:23:41.561Z,-0.50
2023-03-01T00:26:11.282Z,-0.50
2023-03-01T00:28:38.143Z,-0.50
2023-03-01T00:31:10.740Z,-0.50
2023-03-01T00:33:37.537Z,-0.50
2023-03-01T00:36:05.285Z,-0.50
2023-03-01T00:38:35.541Z,-0.50
2023-03-01T00:41:10.928Z,-0.70
2023-03-01T00:43:37.833Z,-0.80
2023-03-01T00:46:10.550Z,-0.90
2023-03-01T00:48:38.120Z,-1.00
2023-03-01T00:51:26.654Z,-1.00
2023-03-01T00:53:55.648Z,-0.90
2023-03-01T00:56:22.657Z,-1.00
2023-03-01T00:58:49.464Z,-1.00
2023-03-01T01:01:22.439Z,-1.10
2023-03-01T01:03:50.741Z,-1.10
2023-03-01T01:06:26.602Z,-1.10
2023-03-01T01:08:54.419Z,-1.20
2023-03-01T01:11:22.606Z,-1.30
2023-03-01T01:13:49.882Z,-1.30
2023-03-01T01:16:18.205Z,-1.20
2023-03-01T01:18:45.734Z,-1.20
2023-03-01T01:21:16.055Z,-1.10
2023-03-01T01:23:44.642Z,-1.20
2023-03-01T01:26:17.557Z,-1.20
2023-03-01T01:28:44.281Z,-1.20
2023-03-01T01:31:11.391Z,-1.20
2023-03-01T01:33:38.508Z,-1.30
2023-03-01T01:36:09.441Z,-1.20
2023-03-01T01:38:37.170Z,-1.30
2023-03-01T01:41:05.299Z,-1.20
2023-03-01T01:43:38.642Z,-1.20
2023-03-01T01:46:15.370Z,-1.30
2023-03-01T01:48:47.298Z,-1.30
2023-03-01T01:51:22.996Z,-1.30
2023-03-01T01:53:56.055Z,-1.30
2023-03-01T01:56:26.254Z,-1.20
2023-03-01T01:58:53.835Z,-1.20
2023-03-01T02:01:21.291Z,-1.20
2023-03-01T02:03:48.890Z,-1.20
2023-03-01T02:06:40.937Z,-1.20
2023-03-01T02:09:14.796Z,-1.20
2023-03-01T02:11:42.219Z,-1.10
2023-03-01T02:14:09.740Z,-1.20
2023-03-01T02:16:36.652Z,-1.20
2023-03-01T02:19:06.355Z,-1.20
2023-03-01T02:21:48.121Z,-1.10
2023-03-01T02:24:27.794Z,-1.10
2023-03-01T02:26:56.623Z,-1.10
2023-03-01T02:29:27.981Z,-1.10
2023-03-01T02:31:57.640Z,-1.10
2023-03-01T02:34:26.607Z,-1.10
2023-03-01T02:36:58.091Z,-1.10
2023-03-01T02:39:32.689Z,-1.10
2023-03-01T02:42:01.284Z,-1.10
2023-03-01T02:44:28.054Z,-1.10
2023-03-01T02:46:57.939Z,-1.10
2023-03-01T02:49:30.175Z,-1.10
2023-03-01T02:52:22.708Z,-1.10
2023-03-01T02:55:05.635Z,-1.10
2023-03-01T02:57:34.630Z,-1.10
2023-03-01T03:00:08.166Z,-1.10
2023-03-01T03:02:39.322Z,-1.00
2023-03-01T03:05:18.621Z,-1.00
2023-03-01T03:07:47.362Z,-1.00
2023-03-01T03:10:23.204Z,-1.10
2023-03-01T03:12:52.379Z,-1.10
2023-03-01T03:15:21.366Z,-1.20
2023-03-01T03:17:48.803Z,-1.10
2023-03-01T03:20:20.129Z,-1.10
2023-03-01T03:22:52.764Z,-1.10
2023-03-01T03:25:20.277Z,-1.10
2023-03-01T03:27:49.157Z,-1.10
2023-03-01T03:30:19.193Z,-1.10
2023-03-01T03:32:56.989Z,-1.10
2023-03-01T03:35:33.450Z,-1.10
2023-03-01T03:38:07.402Z,-1.20
2023-03-01T03:40:39.237Z,-1.10
2023-03-01T03:43:09.570Z,-1.10
2023-03-01T03:45:36.987Z,-1.10
2023-03-01T03:48:06.058Z,-1.10
2023-03-01T03:50:33.590Z,-1.10
2023-03-01T03:53:05.895Z,-1.10
2023-03-01T03:55:34.906Z,-1.00
2023-03-01T03:58:07.572Z,-1.00
2023-03-01T04:00:36.541Z,-1.00
2023-03-01T04:03:03.826Z,-1.00
2023-03-01T04:05:31.335Z,-1.00
2023-03-01T04:08:08.045Z,-1.00
2023-03-01T04:10:38.544Z,-1.00
2023-03-01T04:13:11.376Z,-1.00
2023-03-01T04:15:38.154Z,-1.00
2023-03-01T04:18:05.953Z,-1.00
2023-03-01T04:20:35.799Z,-1.00
2023-03-01T04:23:11.501Z,-1.00
2023-03-01T04:25:43.130Z,-1.00
2023-03-01T04:28:10.816Z,-1.00
2023-03-01T04:30:39.392Z,-0.90
2023-03-01T04:33:07.598Z,-0.90
2023-03-01T04:35:35.631Z,-0.90
2023-03-01T04:38:02.891Z,-0.90
2023-03-01T04:40:29.921Z,-0.90
2023-03-01T04:42:56.658Z,-0.90
2023-03-01T04:45:23.442Z,-0.90
2023-03-01T04:47:50.228Z,-0.80
2023-03-01T04:50:18.122Z,-0.90
2023-03-01T04:52:45.517Z,-0.90
2023-03-01T04:55:12.334Z,-0.90
2023-03-01T04:57:39.570Z,-0.80
2023-03-01T05:00:21.134Z,-0.80
2023-03-01T05:02:49.628Z,-0.80
2023-03-01T05:05:16.738Z,-0.80
2023-03-01T05:07:43.480Z,-0.90
2023-03-01T05:10:10.809Z,-0.90
2023-03-01T05:12:38.284Z,-0.80
2023-03-01T05:15:08.807Z,-0.90
2023-03-01T05:17:36.127Z,-0.90
2023-03-01T05:20:07.959Z,-0.90
2023-03-01T05:22:34.765Z,-0.80
2023-03-01T05:25:01.493Z,-0.80
2023-03-01T05:27:28.615Z,-0.80
2023-03-01T05:29:55.372Z,-0.80
2023-03-01T05:32:22.378Z,-0.80
2023-03-01T05:34:49.105Z,-0.90
2023-03-01T05:37:16.138Z,-0.80
2023-03-01T05:42:12.737Z,-0.80
2023-03-01T05:44:39.508Z,-0.80
2023-03-01T05:47:06.273Z,-0.70
2023-03-01T05:49:33.111Z,-0.70
2023-03-01T05:51:59.885Z,-0.80
2023-03-01T05:54:26.722Z,-0.80
2023-03-01T05:56:53.940Z,-0.80
2023-03-01T05:59:20.751Z,-0.80
2023-03-01T06:01:47.443Z,-0.80
2023-03-01T06:04:14.264Z,-0.70
2023-03-01T06:06:41.071Z,-0.70
2023-03-01T06:09:10.169Z,-0.70
2023-03-01T06:11:37.527Z,-0.70
2023-03-01T06:14:05.157Z,-0.70
2023-03-01T06:16:32.263Z,-0.70
2023-03-01T06:18:59.173Z,-0.70
2023-03-01T06:21:26.136Z,-0.70
2023-03-01T06:23:53.146Z,-0.70
2023-03-01T06:26:20.163Z,-0.70
2023-03-01T06:28:47.346Z,-0.70
2023-03-01T06:31:14.352Z,-0.70
2023-03-01T06:33:41.087Z,-0.60
2023-03-01T06:36:09.214Z,-0.60
2023-03-01T06:38:36.063Z,-0.60
2023-03-01T06:41:02.980Z,-0.60
2023-03-01T06:43:29.783Z,-0.60
2023-03-01T06:45:56.828Z,-0.60
2023-03-01T06:48:23.516Z,-0.50
2023-03-01T06:50:50.319Z,-0.60
2023-03-01T06:53:17.091Z,-0.50
2023-03-01T06:55:43.840Z,-0.50
2023-03-01T06:58:11.782Z,-0.50
2023-03-01T07:00:41.067Z,-0.50
2023-03-01T07:03:07.787Z,-0.50
2023-03-01T07:05:34.710Z,-0.40
2023-03-01T07:08:01.616Z,-0.50
2023-03-01T07:10:28.498Z,-0.50
2023-03-01T07:12:58.881Z,-0.40
2023-03-01T07:15:26.712Z,-0.40
2023-03-01T07:17:53.615Z,-0.40
2023-03-01T07:20:26.101Z,-0.40
2023-03-01T07:22:53.694Z,-0.40
2023-03-01T07:25:20.496Z,-0.40
2023-03-01T07:27:52.330Z,-0.40
2023-03-01T07:30:19.879Z,-0.40
2023-03-01T07:32:46.957Z,-0.40
2023-03-01T07:35:14.138Z,-0.40
2023-03-01T07:37:40.832Z,-0.40
2023-03-01T07:40:08.620Z,-0.40
2023-03-01T07:42:35.324Z,-0.30
2023-03-01T07:45:02.067Z,-0.30
2023-03-01T07:47:28.802Z,-0.30
2023-03-01T07:49:55.489Z,-0.30
2023-03-01T07:52:22.293Z,-0.20
2023-03-01T07:54:49.057Z,-0.20
2023-03-01T07:57:15.822Z,-0.20
2023-03-01T07:59:42.519Z,-0.10
2023-03-01T08:02:10.903Z,-0.10
2023-03-01T08:04:37.797Z,-0.10
2023-03-01T08:07:06.576Z,-0.10
2023-03-01T08:09:36.517Z,-0.10
2023-03-01T08:12:04.038Z,-0.10
2023-03-01T08:14:30.935Z,0.00
2023-03-01T08:16:57.752Z,0.00
2023-03-01T08:19:24.590Z,0.10
2023-03-01T08:21:51.527Z,0.20
2023-03-01T08:24:18.288Z,0.10
2023-03-01T08:26:45.067Z,0.20
2023-03-01T08:29:11.866Z,0.20
2023-03-01T08:31:40.729Z,0.30
2023-03-01T08:34:10.932Z,0.30
2023-03-01T08:36:40.982Z,0.30
2023-03-01T08:39:09.079Z,0.30
2023-03-01T08:41:35.918Z,0.40
2023-03-01T08:44:02.874Z,0.50
2023-03-01T08:46:41.587Z,0.50
2023-03-01T08:49:10.608Z,0.60
2023-03-01T08:51:40.003Z,0.60
2023-03-01T08:54:12.027Z,0.60
2023-03-01T08:56:39.219Z,0.60
2023-03-01T08:59:06.276Z,0.70
2023-03-01T09:01:33.080Z,0.80
2023-03-01T09:04:00.071Z,0.80
2023-03-01T09:06:27.153Z,0.90
2023-03-01T09:08:54.011Z,0.90
2023-03-01T09:11:22.218Z,1.00
2023-03-01T09:13:49.911Z,1.00
2023-03-01T09:16:18.947Z,1.00
2023-03-01T09:18:46.512Z,1.20
2023-03-01T09:21:16.261Z,1.30
2023-03-01T09:23:45.606Z,1.40
2023-03-01T09:26:22.844Z,1.40
2023-03-01T09:28:55.323Z,1.50
2023-03-01T09:31:23.906Z,1.80
2023-03-01T09:33:53.341Z,1.90
2023-03-01T09:36:22.915Z,2.00
2023-03-01T09:38:50.497Z,2.00
2023-03-01T09:41:39.153Z,2.20
2023-03-01T09:44:32.672Z,2.20
2023-03-01T09:47:00.338Z,2.20
2023-03-01T09:49:34.448Z,2.30
2023-03-01T09:52:12.464Z,2.30
2023-03-01T09:54:39.445Z,2.50
2023-03-01T09:57:08.256Z,2.70
2023-03-01T10:00:02.235Z,2.80
2023-03-01T10:02:40.411Z,3.00
2023-03-01T10:05:34.349Z,3.10
2023-03-01T10:08:52.399Z,3.20
2023-03-01T10:11:31.134Z,3.50
2023-03-01T10:14:30.455Z,3.70
2023-03-01T10:17:09.868Z,3.60
2023-03-01T10:19:44.700Z,3.60
2023-03-01T10:22:16.093Z,3.80
2023-03-01T10:24:43.197Z,4.10
2023-03-01T10:27:22.574Z,4.40
2023-03-01T10:29:49.183Z,4.50
2023-03-01T10:32:16.464Z,4.70
2023-03-01T10:34:43.570Z,5.00
2023-03-01T10:37:22.799Z,5.00
2023-03-01T10:40:11.554Z,4.90
2023-03-01T10:42:49.431Z,5.00
2023-03-01T10:45:35.286Z,5.00
2023-03-01T10:48:07.184Z,5.10
2023-03-01T10:50:34.204Z,5.30
2023-03-01T10:53:05.450Z,5.20
2023-03-01T10:55:37.653Z,5.10
2023-03-01T10:58:20.232Z,5.10
2023-03-01T11:00:53.714Z,5.30
2023-03-01T11:03:27.429Z,5.40
2023-03-01T11:06:00.613Z,5.50
2023-03-01T11:08:42.419Z,5.60
2023-03-01T11:11:32.782Z,5.70
2023-03-01T11:14:28.042Z,5.90
2023-03-01T11:17:24.251Z,5.90
2023-03-01T11:20:15.210Z,6.20
2023-03-01T11:22:57.665Z,6.40
2023-03-01T11:25:33.867Z,6.50
2023-03-01T11:28:02.671Z,6.50
2023-03-01T11:30:34.693Z,6.50
2023-03-01T11:33:38.811Z,6.40
2023-03-01T11:36:33.455Z,6.40
2023-03-01T11:39:27.335Z,6.60
2023-03-01T11:42:18.565Z,6.50
2023-03-01T11:44:50.826Z,6.50
2023-03-01T11:47:34.216Z,6.60
2023-03-01T11:50:19.816Z,6.50
2023-03-01T11:53:07.789Z,6.50
2023-03-01T11:56:05.433Z,6.60
2023-03-01T11:58:40.933Z,6.40
2023-03-01T12:01:18.679Z,6.60
2023-03-01T12:04:01.293Z,6.70
2023-03-01T12:06:41.565Z,6.80
2023-03-01T12:09:59.833Z,6.80
2023-03-01T12:13:05.080Z,6.90
2023-03-01T12:15:59.739Z,6.80
2023-03-01T12:18:48.442Z,6.70
2023-03-01T12:21:32.831Z,6.60
2023-03-01T12:24:17.137Z,6.50
2023-03-01T12:26:54.484Z,6.60
2023-03-01T12:29:32.487Z,6.70
2023-03-01T12:32:05.563Z,6.70
2023-03-01T12:34:50.743Z,6.70
2023-03-01T12:37:25.937Z,6.70
2023-03-01T12:40:21.522Z,6.60
2023-03-01T12:43:29.558Z,6.60
2023-03-01T12:46:26.512Z,6.60
2023-03-01T12:49:13.786Z,6.60
2023-03-01T12:51:43.747Z,6.50
2023-03-01T12:54:17.791Z,6.40
2023-03-01T12:56:53.584Z,6.40
2023-03-01T12:59:38.484Z,6.40
2023-03-01T13:02:14.455Z,6.50
2023-03-01T13:05:13.322Z,6.60
2023-03-01T13:07:42.645Z,6.60
2023-03-01T13:10:37.221Z,6.60
2023-03-01T13:13:19.994Z,6.70
2023-03-01T13:15:48.801Z,6.60
2023-03-01T13:18:22.949Z,6.50
2023-03-01T13:20:52.792Z,6.60
2023-03-01T13:23:22.672Z,6.50
2023-03-01T13:26:01.168Z,6.50
2023-03-01T13:28:46.913Z,6.50
2023-03-01T13:31:16.525Z,6.50
2023-03-01T13:33:55.912Z,6.60
2023-03-01T13:36:28.827Z,6.60
2023-03-01T13:38:58.990Z,6.70
2023-03-01T13:41:44.170Z,6.80
2023-03-01T13:44:33.001Z,6.90
2023-03-01T13:47:09.577Z,6.90
2023-03-01T13:49:58.290Z,6.90
2023-03-01T13:52:40.380Z,6.90
2023-03-01T13:55:19.921Z,6.90
2023-03-01T13:57:55.266Z,6.90
2023-03-01T14:01:01.652Z,6.80
2023-03-01T14:03:29.219Z,6.80
2023-03-01T14:06:19.716Z,6.80
2023-03-01T14:08:50.952Z,6.80
2023-03-01T14:11:38.283Z,6.90
2023-03-01T14:14:42.891Z,6.90
2023-03-01T14:17:18.787Z,6.90
2023-03-01T14:19:48.528Z,7.00
2023-03-01T14:22:30.341Z,7.00
2023-03-01T14:25:00.648Z,7.00
2023-03-01T14:27:34.223Z,7.00
2023-03-01T14:30:11.025Z,7.00
2023-03-01T14:32:37.778Z,7.00
2023-03-01T14:35:19.904Z,7.00
2023-03-01T14:37:46.735Z,7.10
2023-03-01T14:40:23.981Z,7.00
2023-03-01T14:42:51.050Z,6.90
2023-03-01T14:45:18.933Z,6.90
2023-03-01T14:47:46.268Z,6.80
2023-03-01T14:50:27.147Z,6.80
2023-03-01T14:53:05.824Z,6.80
2023-03-01T14:55:42.613Z,6.80
2023-03-01T14:58:19.280Z,6.80
2023-03-01T15:01:06.594Z,6.80
2023-03-01T15:03:45.047Z,6.80
2023-03-01T15:06:16.452Z,6.80
2023-03-01T15:08:47.838Z,6.80
2023-03-01T15:11:14.538Z,6.80
2023-03-01T15:13:42.665Z,6.80
2023-03-01T15:16:39.160Z,6.70
2023-03-01T15:19:07.778Z,6.80
2023-03-01T15:21:37.755Z,6.80
2023-03-01T15:24:20.613Z,6.80
2023-03-01T15:27:02.851Z,6.80
2023-03-01T15:29:31.787Z,6.80
2023-03-01T15:32:07.411Z,6.80
2023-03-01T15:34:38.274Z,6.70
2023-03-01T15:37:09.000Z,6.70
2023-03-01T15:39:44.189Z,6.70
2023-03-01T15:42:34.998Z,6.70
2023-03-01T15:45:17.887Z,6.70
2023-03-01T15:47:51.078Z,6.70
2023-03-01T15:50:24.261Z,6.60
2023-03-01T15:52:51.951Z,6.60
2023-03-01T15:55:24.934Z,6.60
2023-03-01T15:58:23.945Z,6.60
2023-03-01T16:01:01.991Z,6.60
2023-03-01T16:03:30.335Z,6.60
2023-03-01T16:05:57.245Z,6.50
2023-03-01T16:08:24.436Z,6.50
2023-03-01T16:10:52.498Z,6.50
2023-03-01T16:13:20.301Z,6.40
2023-03-01T16:15:47.316Z,6.50
2023-03-01T16:18:14.352Z,6.40
2023-03-01T16:20:42.283Z,6.40
2023-03-01T16:23:12.310Z,6.50
2023-03-01T16:25:39.127Z,6.40
2023-03-01T16:28:10.060Z,6.30
2023-03-01T16:30:38.735Z,6.30
2023-03-01T16:33:19.112Z,6.30
2023-03-01T16:35:51.622Z,6.20
2023-03-01T16:38:18.515Z,6.20
2023-03-01T16:40:49.667Z,6.10
2023-03-01T16:43:16.827Z,6.00
2023-03-01T16:45:45.724Z,6.00
2023-03-01T16:48:12.990Z,5.90
2023-03-01T16:50:39.992Z,5.80
2023-03-01T16:53:07.117Z,6.00
2023-03-01T16:55:34.719Z,5.80
2023-03-01T16:58:01.997Z,5.70
2023-03-01T17:00:29.439Z,5.70
2023-03-01T17:02:56.587Z,5.70
2023-03-01T17:05:24.963Z,5.60
2023-03-01T17:07:52.382Z,5.60
2023-03-01T17:10:19.267Z,5.60
2023-03-01T17:12:49.685Z,5.50
2023-03-01T17:15:16.425Z,5.50
2023-03-01T17:17:43.187Z,5.40
2023-03-01T17:20:10.667Z,5.40
2023-03-01T17:22:37.689Z,5.30
2023-03-01T17:25:04.969Z,5.40
2023-03-01T17:27:35.701Z,5.30
2023-03-01T17:30:03.153Z,5.30
2023-03-01T17:32:30.041Z,5.30
2023-03-01T17:34:56.786Z,5.20
2023-03-01T17:37:23.574Z,5.20
2023-03-01T17:39:50.337Z,5.20
2023-03-01T17:42:17.164Z,5.10
2023-03-01T17:44:43.984Z,5.10
2023-03-01T17:47:11.540Z,5.10
2023-03-01T17:49:38.571Z,5.10
2023-03-01T17:52:05.331Z,5.00
2023-03-01T17:54:33.463Z,5.00
2023-03-01T17:57:00.350Z,5.00
2023-03-01T17:59:31.302Z,5.00
2023-03-01T18:01:58.611Z,5.00
2023-03-01T18:04:25.323Z,4.90
2023-03-01T18:06:52.014Z,4.90
2023-03-01T18:09:19.227Z,4.90
2023-03-01T18:11:47.860Z,4.90
2023-03-01T18:14:14.926Z,4.80
2023-03-01T18:16:41.676Z,4.80
2023-03-01T18:19:08.497Z,4.80
2023-03-01T18:21:35.154Z,4.70
2023-03-01T18:24:01.978Z,4.80
2023-03-01T18:26:29.821Z,4.70
2023-03-01T18:28:58.424Z,4.70
2023-03-01T18:31:25.871Z,4.60
2023-03-01T18:33:57.458Z,4.60
2023-03-01T18:36:27.240Z,4.50
2023-03-01T18:38:56.319Z,4.50
2023-03-01T18:41:24.791Z,4.40
2023-03-01T18:43:51.512Z,4.40
2023-03-01T18:46:20.217Z,4.40
2023-03-01T18:48:47.779Z,4.30
2023-03-01T18:51:20.522Z,4.40
2023-03-01T18:53:47.582Z,4.30
2023-03-01T18:56:15.109Z,4.30
2023-03-01T18:58:45.814Z,4.20
2023-03-01T19:01:18.168Z,4.20
2023-03-01T19:03:45.299Z,4.10
2023-03-01T19:06:12.129Z,4.10
2023-03-01T19:08:40.931Z,4.10
2023-03-01T19:11:09.484Z,4.00
2023-03-01T19:13:38.482Z,4.10
2023-03-01T19:16:12.245Z,4.00
2023-03-01T19:18:41.129Z,4.00
2023-03-01T19:21:09.790Z,4.00
2023-03-01T19:23:38.323Z,4.00
2023-03-01T19:26:07.982Z,3.90
2023-03-01T19:28:37.453Z,3.90
2023-03-01T19:31:10.751Z,3.90
2023-03-01T19:33:40.056Z,3.90
2023-03-01T19:36:10.856Z,3.80
2023-03-01T19:38:39.096Z,3.80
2023-03-01T19:41:08.124Z,3.70
2023-03-01T19:43:35.364Z,3.70
2023-03-01T19:46:02.518Z,3.80
2023-03-01T19:48:29.575Z,3.70
2023-03-01T19:50:58.600Z,3.70
2023-03-01T19:53:25.273Z,3.60
2023-03-01T19:55:58.157Z,3.60
2023-03-01T19:58:25.895Z,3.60
2023-03-01T20:00:58.619Z,3.60
2023-03-01T20:03:30.793Z,3.60
2023-03-01T20:05:58.509Z,3.60
2023-03-01T20:08:25.968Z,3.60
2023-03-01T20:10:52.696Z,3.50
2023-03-01T20:13:21.197Z,3.50
2023-03-01T20:15:48.378Z,3.50
2023-03-01T20:18:15.226Z,3.40
2023-03-01T20:20:42.151Z,3.50
2023-03-01T20:23:09.090Z,3.50
2023-03-01T20:25:35.776Z,3.50
2023-03-01T20:28:02.516Z,3.40
2023-03-01T20:30:29.223Z,3.50
2023-03-01T20:32:56.034Z,3.50
2023-03-01T20:35:23.306Z,3.50
2023-03-01T20:37:53.583Z,3.50
2023-03-01T20:40:26.932Z,3.40
2023-03-01T20:42:54.806Z,3.40
2023-03-01T20:45:22.567Z,3.40
2023-03-01T20:47:50.062Z,3.40
2023-03-01T20:50:17.609Z,3.30
2023-03-01T20:52:47.747Z,3.30
2023-03-01T20:55:14.779Z,3.30
2023-03-01T20:57:41.993Z,3.30
2023-03-01T21:00:09.773Z,3.20
2023-03-01T21:02:36.497Z,3.30
2023-03-01T21:05:03.470Z,3.30
2023-03-01T21:07:30.150Z,3.20
2023-03-01T21:09:56.881Z,3.20
2023-03-01T21:12:23.541Z,3.20
2023-03-01T21:14:50.304Z,3.20
2023-03-01T21:17:17.780Z,3.20
2023-03-01T21:19:45.229Z,3.20
2023-03-01T21:22:14.834Z,3.20
2023-03-01T21:24:42.530Z,3.10
2023-03-01T21:27:11.183Z,3.10
2023-03-01T21:29:54.670Z,3.10
2023-03-01T21:32:45.562Z,3.10
2023-03-01T21:35:12.433Z,3.10
2023-03-01T21:37:40.397Z,3.00
2023-03-01T21:40:09.126Z,3.00
2023-03-01T21:42:36.814Z,3.00
2023-03-01T21:45:04.327Z,3.00
2023-03-01T21:47:31.036Z,3.00
2023-03-01T21:49:57.838Z,3.00
2023-03-01T21:52:24.699Z,2.90
2023-03-01T21:54:52.234Z,2.90
2023-03-01T21:57:19.208Z,2.90
2023-03-01T21:59:45.870Z,2.90
2023-03-01T22:02:14.353Z,2.90
2023-03-01T22:04:41.687Z,2.80
2023-03-01T22:07:08.388Z,2.80
2023-03-01T22:09:36.311Z,2.80
2023-03-01T22:12:03.621Z,2.80
2023-03-01T22:14:31.893Z,2.80
2023-03-01T22:16:58.846Z,2.70
2023-03-01T22:19:26.916Z,2.70
2023-03-01T22:21:53.725Z,2.70
2023-03-01T22:24:24.023Z,2.70
2023-03-01T22:26:51.003Z,2.60
2023-03-01T22:29:22.005Z,2.70
2023-03-01T22:31:49.546Z,2.60
2023-03-01T22:34:18.000Z,2.60
2023-03-01T22:36:45.609Z,2.60
2023-03-01T22:39:14.905Z,2.50
2023-03-01T22:41:45.572Z,2.50
2023-03-01T22:44:17.771Z,2.50
2023-03-01T22:46:45.130Z,2.50
2023-03-01T22:49:12.622Z,2.50
2023-03-01T22:51:42.014Z,2.40
2023-03-01T22:54:10.165Z,2.40
2023-03-01T22:56:38.046Z,2.40
2023-03-01T22:59:10.513Z,2.40
2023-03-01T23:01:39.064Z,2.40
2023-03-01T23:04:05.982Z,2.40
2023-03-01T23:06:33.466Z,2.30
2023-03-01T23:09:04.387Z,2.30
2023-03-01T23:11:31.258Z,2.30
2023-03-01T23:13:59.392Z,2.20
2023-03-01T23:16:29.548Z,2.30
2023-03-01T23:18:59.105Z,2.30
2023-03-01T23:21:26.176Z,2.20
2023-03-01T23:23:55.037Z,2.20
2023-03-01T23:26:22.404Z,2.20
2023-03-01T23:28:50.935Z,2.20
2023-03-01T23:31:17.882Z,2.10
2023-03-01T23:33:46.212Z,2.10
2023-03-01T23:36:21.834Z,2.10
2023-03-01T23:38:51.254Z,2.10
2023-03-01T23:41:21.032Z,2.10
2023-03-01T23:43:50.204Z,2.00
2023-03-01T23:46:19.340Z,2.00
2023-03-01T23:48:46.736Z,2.00
2023-03-01T23:51:15.679Z,2.00
2023-03-01T23:53:54.303Z,2.00
2023-03-01T23:56:34.324Z,2.00
2023-03-01T23:59:03.916Z,1.90
